Time;durP1;ratioP1;P1;durP2;ratioP2;P2;SDS_P1;SDS_P2;PMS_P1;PMS_P2;Temp;Humidity;BMP_temperature;BMP_pressure;BME280_temperature;BME280_humidity;BME280_pressure;Samples;Min_cycle;Max_cycle;Signal;HPM_P1;HPM_P2
2021/06/10 00:00:25;;;;;;;6.57;6.18;;;;;;;29.74;57.43;100703.75;4917954;28;69104;-41
2021/06/10 00:02:56;;;;;;;10.38;6.07;;;;;;;29.78;57.84;100694.16;4921947;28;66073;-40
2021/06/10 00:05:28;;;;;;;8.30;6.67;;;;;;;29.82;59.47;100699.97;4918430;28;69706;-39
2021/06/10 00:08:00;;;;;;;9.00;7.53;;;;;;;29.87;59.99;100702.84;4921005;28;66221;-40
2021/06/10 00:10:32;;;;;;;15.00;9.13;;;;;;;29.96;61.18;100708.81;4919760;28;69757;-40
2021/06/10 00:13:03;;;;;;;15.38;10.15;;;;;;;30.00;61.12;100710.03;4920548;28;65702;-39
2021/06/10 00:15:37;;;;;;;15.37;9.70;;;;;;;29.77;61.67;100661.91;4921037;28;69690;-40
2021/06/10 00:18:08;;;;;;;16.70;10.13;;;;;;;30.10;61.62;100709.56;4921048;28;65077;-39
2021/06/10 00:20:40;;;;;;;10.10;9.13;;;;;;;30.14;62.29;100702.63;4919653;28;69840;-40
2021/06/10 00:23:12;;;;;;;22.75;10.05;;;;;;;30.15;62.50;100710.56;4917357;28;65265;-40
2021/06/10 00:25:44;;;;;;;13.85;10.30;;;;;;;30.21;63.04;100709.66;4920293;28;70042;-41
2021/06/10 00:28:16;;;;;;;17.45;9.77;;;;;;;30.25;62.31;100702.78;4916509;28;64790;-40
2021/06/10 00:30:47;;;;;;;19.42;9.18;;;;;;;30.26;63.40;100701.75;4918601;28;69961;-40
2021/06/10 00:33:20;;;;;;;13.68;9.73;;;;;;;30.32;63.69;100693.81;4929349;28;65411;-40
2021/06/10 00:35:51;;;;;;;17.73;9.85;;;;;;;30.18;63.39;100677.66;4909269;28;69056;-40
2021/06/10 00:38:22;;;;;;;15.10;11.00;;;;;;;30.30;63.08;100698.59;4921271;28;65178;-41
2021/06/10 00:40:54;;;;;;;13.53;11.00;;;;;;;30.38;63.43;100704.56;4922222;28;69869;-41
2021/06/10 00:43:25;;;;;;;18.95;11.90;;;;;;;30.43;63.37;100706.63;4923074;28;65096;-40
2021/06/10 00:45:57;;;;;;;18.90;11.87;;;;;;;30.45;63.74;100702.63;4920729;28;69841;-42
2021/06/10 00:48:29;;;;;;;18.67;11.88;;;;;;;30.43;65.14;100707.44;4921567;28;65661;-42
2021/06/10 00:51:02;;;;;;;14.38;12.88;;;;;;;30.46;64.91;100701.59;4914998;28;69431;-41
2021/06/10 00:53:36;;;;;;;25.73;13.43;;;;;;;30.35;65.28;100671.72;4920027;28;65086;-44
2021/06/10 00:56:07;;;;;;;27.60;12.90;;;;;;;30.60;65.83;100713.13;4919012;28;69909;-43
2021/06/10 00:58:39;;;;;;;16.30;11.90;;;;;;;30.64;65.83;100719.72;4919565;28;64989;-40
2021/06/10 01:01:10;;;;;;;;;;;;;;;30.44;67.55;100706.38;4917959;28;70564;-41
2021/06/10 01:03:42;;;;;;;18.58;11.90;;;;;;;30.69;65.60;100719.91;4918326;28;67216;-39
2021/06/10 01:06:29;;;;;;;21.45;11.90;;;;;;;30.67;65.02;100718.47;4918357;28;69146;-38
2021/06/10 01:09:14;;;;;;;13.18;10.85;;;;;;;30.55;62.47;100710.25;4901233;28;66113;-42
2021/06/10 01:12:04;;;;;;;12.35;11.07;;;;;;;30.51;61.51;100714.47;4920871;28;69180;-41
2021/06/10 01:14:56;;;;;;;20.70;10.48;;;;;;;30.36;60.84;100725.59;4918148;28;66139;-38
2021/06/10 01:17:30;;;;;;;17.42;10.93;;;;;;;30.08;60.26;100681.88;4917974;28;69645;-38
2021/06/10 01:20:08;;;;;;;14.27;9.77;;;;;;;30.11;59.38;100682.25;4918335;28;66001;-35
2021/06/10 01:23:06;;;;;;;22.67;10.07;;;;;;;30.18;58.37;100720.94;4918635;28;69639;-37
2021/06/10 01:25:57;;;;;;;21.30;10.40;;;;;;;30.20;58.07;100732.38;4913369;28;65933;-36
2021/06/10 01:28:38;;;;;;;24.55;9.98;;;;;;;29.69;56.32;100667.59;4921139;28;69638;-35
2021/06/10 01:31:14;;;;;;;17.13;9.65;;;;;;;30.04;56.38;100728.31;4918721;28;65869;-37
2021/06/10 01:33:54;;;;;;;22.10;9.55;;;;;;;30.02;55.34;100732.28;4920170;28;69846;-35
2021/06/10 01:36:29;;;;;;;18.27;9.82;;;;;;;30.06;55.03;100728.94;4917512;28;66044;-36
2021/06/10 01:39:08;;;;;;;29.48;9.50;;;;;;;30.03;54.06;100733.91;4921914;28;69520;-34
2021/06/10 01:41:43;;;;;;;27.85;9.57;;;;;;;29.76;54.58;100698.94;4916477;28;66610;-32
2021/06/10 01:44:17;;;;;;;13.73;9.05;;;;;;;29.78;54.10;100707.69;4916654;28;69125;-34
2021/06/10 01:46:51;;;;;;;26.20;8.70;;;;;;;29.79;52.91;100709.31;4917905;28;65515;-35
2021/06/10 01:49:23;;;;;;;29.63;8.57;;;;;;;29.91;53.31;100738.38;4918472;28;69895;-32
2021/06/10 01:51:59;;;;;;;29.95;8.85;;;;;;;29.93;53.09;100757.94;4919332;28;65852;-36
2021/06/10 01:54:32;;;;;;;22.17;8.32;;;;;;;29.74;52.70;100719.13;4916817;28;69920;-39
2021/06/10 01:57:06;;;;;;;24.92;7.93;;;;;;;29.91;53.92;100744.63;4917913;28;66251;-38
2021/06/10 01:59:38;;;;;;;19.40;7.78;;;;;;;29.87;52.94;100746.09;4920393;28;69473;-36
2021/06/10 02:05:56;;;;;;;17.30;8.43;;;;;;;29.77;53.18;100757.38;4917422;28;70056;-32
2021/06/10 02:08:29;;;;;;;21.67;8.00;;;;;;;29.68;53.37;100739.75;4915047;28;65942;-33
2021/06/10 02:11:02;;;;;;;26.83;7.28;;;;;;;29.71;52.55;100744.72;4908599;28;69233;-38
2021/06/10 02:13:35;;;;;;;20.02;8.20;;;;;;;29.78;53.24;100759.06;4899511;28;66144;-35
2021/06/10 02:16:09;;;;;;;16.42;8.80;;;;;;;29.78;52.65;100737.44;4934408;28;69341;-38
2021/06/10 02:18:47;;;;;;;11.60;7.57;;;;;;;29.58;52.57;100709.63;4904786;28;66140;-41
2021/06/10 02:21:18;;;;;;;14.05;6.97;;;;;;;29.80;51.59;100739.88;4916062;28;69603;-42
2021/06/10 02:23:50;;;;;;;17.38;7.88;;;;;;;29.82;51.76;100754.84;4909702;28;65871;-34
2021/06/10 02:26:22;;;;;;;13.07;6.90;;;;;;;29.82;51.76;100749.44;4919627;28;69901;-38
2021/06/10 02:28:57;;;;;;;19.52;6.05;;;;;;;29.86;51.53;100740.91;4917527;28;66097;-36
2021/06/10 02:31:28;;;;;;;;;;;;;;;29.66;50.30;100755.34;4919848;28;69043;-40
2021/06/10 02:34:03;;;;;;;13.07;6.07;;;;;;;29.89;50.82;100746.69;4903159;28;66712;-40
2021/06/10 02:36:39;;;;;;;15.32;5.50;;;;;;;29.61;49.78;100693.81;4921765;28;69359;-37
2021/06/10 02:39:14;;;;;;;21.75;6.43;;;;;;;29.85;49.00;100740.06;4919448;28;66088;-42
2021/06/10 02:41:51;;;;;;;8.63;5.75;;;;;;;29.90;48.27;100750.25;4918344;28;69654;-35
2021/06/10 02:44:32;;;;;;;16.17;6.68;;;;;;;29.91;47.73;100738.38;4918127;28;66041;-36
2021/06/10 02:47:07;;;;;;;22.65;5.45;;;;;;;29.66;47.85;100706.69;4903123;28;69843;-36
2021/06/10 02:49:45;;;;;;;25.60;6.00;;;;;;;29.84;48.23;100733.84;4916145;28;66236;-38
2021/06/10 02:52:19;;;;;;;13.90;4.50;;;;;;;29.44;48.37;100662.09;4899443;28;69364;-30
2021/06/10 02:54:53;;;;;;;13.48;4.80;;;;;;;29.94;47.93;100746.06;4917916;28;65236;-32
2021/06/10 02:57:27;;;;;;;12.32;4.90;;;;;;;29.95;47.67;100753.13;4917793;28;69427;-31
2021/06/10 03:00:00;;;;;;;8.43;4.38;;;;;;;29.94;47.62;100740.66;4934592;28;66212;-31
2021/06/10 03:02:35;;;;;;;15.38;4.82;;;;;;;29.94;46.04;100740.66;4917414;28;69977;-31
2021/06/10 03:05:09;;;;;;;16.58;4.40;;;;;;;29.84;46.38;100733.03;4915483;28;66083;-29
2021/06/10 03:07:41;;;;;;;13.93;4.78;;;;;;;29.93;46.48;100730.88;4886605;28;69398;-39
2021/06/10 03:10:19;;;;;;;5.20;3.70;;;;;;;29.89;46.03;100716.94;4878088;28;64603;-31
2021/06/10 03:12:53;;;;;;;13.48;4.28;;;;;;;29.93;45.95;100722.78;4914019;28;69231;-29
2021/06/10 03:15:27;;;;;;;4.43;3.40;;;;;;;29.95;46.13;100726.06;4912684;28;65414;-30
2021/06/10 03:17:59;;;;;;;4.32;3.75;;;;;;;29.83;45.55;100707.84;4917869;28;69824;-30
2021/06/10 03:20:32;;;;;;;12.30;3.67;;;;;;;29.97;45.50;100721.28;4915013;28;66255;-31
2021/06/10 03:23:04;;;;;;;5.28;3.60;;;;;;;29.94;45.62;100714.44;4918863;28;68542;-32
2021/06/10 03:25:37;;;;;;;9.60;3.90;;;;;;;29.94;45.20;100703.59;4902153;28;66166;-32
2021/06/10 03:28:10;;;;;;;11.00;3.60;;;;;;;30.00;44.72;100712.72;4897177;28;70603;-30
2021/06/10 03:30:42;;;;;;;7.03;3.70;;;;;;;29.98;44.35;100699.44;4921295;28;66233;-30
2021/06/10 03:33:16;;;;;;;;;;;;;;;29.77;43.29;100699.78;4918328;28;70005;-31
2021/06/10 03:35:48;;;;;;;7.78;3.97;;;;;;;29.97;44.25;100702.34;4918229;28;66367;-31
2021/06/10 03:38:23;;;;;;;8.13;6.75;;;;;;;29.95;46.00;100683.66;4919993;28;69856;-31
2021/06/10 03:40:57;;;;;;;16.40;8.77;;;;;;;29.68;45.94;100637.03;4917163;28;65720;-31
2021/06/10 03:43:31;;;;;;;9.30;8.38;;;;;;;29.69;45.83;100641.38;4898090;28;69357;-32
2021/06/10 03:46:09;;;;;;;9.13;8.35;;;;;;;29.69;44.93;100641.38;4919680;28;65462;-30
2021/06/10 03:48:42;;;;;;;8.77;7.80;;;;;;;29.98;45.43;100694.03;4902570;28;69835;-31
2021/06/10 03:51:17;;;;;;;7.97;7.38;;;;;;;30.00;45.00;100680.28;4919447;28;65638;-32
2021/06/10 03:53:55;;;;;;;11.07;6.80;;;;;;;29.95;44.03;100671.97;4898664;28;70077;-32
2021/06/10 03:56:28;;;;;;;8.05;7.07;;;;;;;29.93;44.88;100679.50;4915737;28;66094;-34
2021/06/10 03:59:01;;;;;;;6.32;5.93;;;;;;;29.98;44.37;100691.31;4915290;28;70518;-33
2021/06/10 04:01:36;;;;;;;10.15;6.88;;;;;;;29.99;44.49;100694.84;4919015;28;66319;-31
2021/06/10 04:04:09;;;;;;;11.07;7.20;;;;;;;29.99;44.99;100686.75;4918700;28;70017;-31
2021/06/10 04:06:41;;;;;;;11.30;7.30;;;;;;;30.00;44.82;100691.09;4916612;28;66133;-34
2021/06/10 04:09:17;;;;;;;14.13;7.95;;;;;;;29.73;45.00;100631.81;4915404;28;70678;-30
2021/06/10 04:11:52;;;;;;;17.92;8.20;;;;;;;29.74;44.70;100635.31;4918658;28;65700;-30
2021/06/10 04:14:24;;;;;;;10.32;7.97;;;;;;;30.02;44.63;100673.59;4913804;28;70141;-32
2021/06/10 04:16:57;;;;;;;15.50;6.88;;;;;;;30.03;44.61;100666.31;4902729;28;66136;-30
2021/06/10 04:19:29;;;;;;;16.50;6.40;;;;;;;30.04;44.05;100676.09;4920341;28;69936;-29
2021/06/10 04:22:02;;;;;;;12.50;6.88;;;;;;;29.98;43.79;100653.47;4922201;28;65443;-32
2021/06/10 04:24:34;;;;;;;26.38;7.05;;;;;;;30.03;44.22;100658.19;4919572;28;70555;-30
2021/06/10 04:27:07;;;;;;;8.73;6.65;;;;;;;29.99;44.07;100657.00;4917333;28;66130;-31
2021/06/10 04:29:41;;;;;;;15.82;6.95;;;;;;;29.98;43.22;100656.16;4906641;28;69863;-29
2021/06/10 04:32:14;;;;;;;9.32;6.72;;;;;;;29.97;43.24;100653.66;4920330;28;65314;-29
2021/06/10 04:34:47;;;;;;;6.13;5.72;;;;;;;29.91;43.83;100643.72;4919890;28;70199;-30
2021/06/10 04:37:22;;;;;;;9.32;5.53;;;;;;;29.94;42.95;100637.88;4923968;28;66741;-32
2021/06/10 04:39:54;;;;;;;7.82;5.93;;;;;;;29.94;43.53;100649.53;4922184;28;69578;-29
2021/06/10 04:42:27;;;;;;;14.10;4.90;;;;;;;29.92;43.71;100639.97;4921306;28;65523;-30
2021/06/10 04:44:58;;;;;;;;;;;;;;;29.70;41.72;100643.06;4918041;28;68956;-29
2021/06/10 04:47:31;;;;;;;7.40;4.88;;;;;;;29.91;43.17;100639.16;4920124;28;65508;-29
2021/06/10 04:50:06;;;;;;;7.47;4.90;;;;;;;29.96;42.99;100641.19;4914070;28;70226;-29
2021/06/10 04:52:40;;;;;;;10.45;4.78;;;;;;;29.89;41.80;100607.97;4920445;28;65518;-30
2021/06/10 04:55:13;;;;;;;7.03;4.57;;;;;;;29.95;42.52;100601.66;4918096;28;70000;-30
2021/06/10 04:57:46;;;;;;;8.05;4.70;;;;;;;30.02;42.40;100614.09;4919671;28;65022;-28
2021/06/10 05:00:20;;;;;;;4.50;4.25;;;;;;;30.04;41.73;100617.41;4916643;28;69722;-29
2021/06/10 05:02:52;;;;;;;6.47;4.47;;;;;;;30.05;41.84;100613.66;4919009;28;66369;-31
2021/06/10 05:05:25;;;;;;;4.93;4.50;;;;;;;30.06;42.52;100617.16;4920287;28;70160;-30
2021/06/10 05:08:02;;;;;;;5.50;4.97;;;;;;;30.06;42.27;100609.06;4918933;28;66275;-30
2021/06/10 05:10:36;;;;;;;14.23;4.15;;;;;;;30.03;41.89;100610.34;4903918;28;69290;-31
2021/06/10 05:13:09;;;;;;;4.55;4.15;;;;;;;30.02;42.04;100597.03;4903670;28;66331;-30
2021/06/10 05:15:42;;;;;;;4.50;4.20;;;;;;;30.00;41.79;100596.44;4921158;28;69814;-30
2021/06/10 05:18:15;;;;;;;16.55;9.38;;;;;;;30.03;47.11;100604.94;4918583;28;66338;-30
2021/06/10 05:20:50;;;;;;;12.32;9.73;;;;;;;30.18;48.42;100612.72;4918495;28;70301;-31
2021/06/10 05:23:38;;;;;;;12.50;10.85;;;;;;;30.22;47.07;100600.41;4899533;28;64610;-32
2021/06/10 05:26:13;;;;;;;9.77;8.80;;;;;;;30.20;46.06;100605.22;4885415;28;71453;-31
2021/06/10 05:28:46;;;;;;;9.73;8.80;;;;;;;30.26;45.76;100588.13;4918792;28;65609;-30
2021/06/10 05:31:21;;;;;;;9.63;8.55;;;;;;;30.30;44.91;100593.91;4932742;28;69820;-32
2021/06/10 05:33:54;;;;;;;8.60;7.80;;;;;;;30.34;45.32;100594.28;4903398;28;66054;-31
2021/06/10 05:36:28;;;;;;;8.07;7.38;;;;;;;30.39;44.55;100587.13;4892974;28;70182;-30
2021/06/10 05:39:00;;;;;;;7.20;6.53;;;;;;;30.42;44.79;100585.84;4919455;28;66014;-30
2021/06/10 05:41:35;;;;;;;9.15;6.40;;;;;;;30.41;44.10;100589.63;4902749;28;70030;-29
2021/06/10 05:44:09;;;;;;;6.55;6.05;;;;;;;30.12;43.56;100537.03;4917922;28;66269;-31
2021/06/10 05:46:49;;;;;;;6.53;5.88;;;;;;;30.38;43.75;100590.09;4930816;28;69314;-29
2021/06/10 05:49:22;;;;;;;11.20;5.80;;;;;;;30.36;43.57;100586.75;4899348;28;65188;-30
2021/06/10 05:51:59;;;;;;;9.68;5.30;;;;;;;30.35;43.48;100585.94;4917164;28;70425;-31
2021/06/10 05:54:33;;;;;;;6.05;4.88;;;;;;;30.31;43.85;100594.72;4916415;28;64880;-33
2021/06/10 05:57:10;;;;;;;6.70;4.82;;;;;;;30.30;43.49;100595.78;4931108;28;69182;-31
2021/06/10 05:59:46;;;;;;;7.03;4.88;;;;;;;30.24;43.29;100590.22;4902632;28;66510;-30
2021/06/10 06:02:20;;;;;;;4.80;4.38;;;;;;;30.17;43.73;100578.59;4905413;28;70205;-36
2021/06/10 06:04:54;;;;;;;4.47;4.18;;;;;;;30.18;43.06;100580.25;4915400;28;66286;-30
2021/06/10 06:07:28;;;;;;;5.10;3.97;;;;;;;30.12;42.80;100559.50;4919185;28;70428;-32
2021/06/10 06:10:02;;;;;;;8.95;4.00;;;;;;;30.14;42.89;100576.31;4917302;28;66029;-31
2021/06/10 06:12:37;;;;;;;15.90;4.22;;;;;;;30.11;43.20;100574.06;4918135;28;69979;-32
2021/06/10 06:15:10;;;;;;;9.45;3.75;;;;;;;30.14;43.68;100562.78;4918986;28;66164;-32
2021/06/10 06:17:44;;;;;;;5.57;3.10;;;;;;;30.13;43.74;100544.91;4934016;28;69344;-31
2021/06/10 06:20:21;;;;;;;4.20;2.88;;;;;;;30.12;43.16;100545.97;4916875;28;66106;-30
2021/06/10 06:22:55;;;;;;;3.58;3.33;;;;;;;30.12;43.39;100537.88;4921093;28;70312;-30
2021/06/10 06:25:27;;;;;;;6.93;3.15;;;;;;;30.06;43.10;100533.31;4919131;28;66026;-31
2021/06/10 06:28:01;;;;;;;8.85;3.25;;;;;;;30.13;42.88;100536.81;4918483;28;69308;-31
2021/06/10 06:30:40;;;;;;;8.82;3.30;;;;;;;30.14;42.95;100535.75;4933920;28;65654;-32
2021/06/10 06:33:12;;;;;;;6.22;3.33;;;;;;;30.15;43.02;100526.59;4916764;28;69907;-31
2021/06/10 06:35:48;;;;;;;7.25;3.10;;;;;;;30.12;42.37;100515.41;4921008;28;66855;-29
2021/06/10 06:38:21;;;;;;;13.45;3.28;;;;;;;30.14;42.79;100514.09;4918976;28;69979;-32
2021/06/10 06:40:53;;;;;;;2.65;2.45;;;;;;;30.14;42.50;100497.03;4902140;28;66048;-32
2021/06/10 06:43:30;;;;;;;4.90;2.90;;;;;;;30.16;42.84;100495.78;4916536;28;70109;-32
2021/06/10 06:46:06;;;;;;;3.05;2.80;;;;;;;30.09;42.98;100473.41;4890346;28;65466;-33
2021/06/10 06:48:39;;;;;;;9.90;2.28;;;;;;;30.15;42.61;100488.72;4915053;28;69302;-34
2021/06/10 06:51:13;;;;;;;2.90;2.70;;;;;;;30.12;42.78;100478.34;4908317;28;66205;-32
2021/06/10 06:53:44;;;;;;;;;;;;;;;29.95;42.64;100482.69;4913155;28;69355;-31
2021/06/10 06:56:25;;;;;;;4.55;1.88;;;;;;;30.13;42.88;100474.59;4931661;28;66103;-31
2021/06/10 06:58:59;;;;;;;5.05;2.00;;;;;;;30.16;43.35;100462.50;4900391;28;69687;-30
2021/06/10 07:01:32;;;;;;;4.90;2.05;;;;;;;30.23;42.78;100474.09;4919650;28;66168;-33
2021/06/10 07:04:05;;;;;;;3.42;1.83;;;;;;;30.23;43.04;100472.22;4868732;28;70546;-29
2021/06/10 07:06:38;;;;;;;2.85;2.10;;;;;;;30.24;42.44;100471.16;4911208;28;66106;-30
2021/06/10 07:09:14;;;;;;;4.20;1.58;;;;;;;30.26;42.32;100469.06;4915949;28;70460;-31
2021/06/10 07:11:47;;;;;;;4.50;1.60;;;;;;;30.28;42.73;100464.25;4908234;28;67804;-31
2021/06/10 07:14:24;;;;;;;5.07;1.55;;;;;;;30.27;42.94;100449.06;4910049;28;69655;-33
2021/06/10 07:16:58;;;;;;;2.53;1.85;;;;;;;30.32;43.04;100461.09;4882070;28;65361;-33
2021/06/10 07:19:32;;;;;;;8.68;2.10;;;;;;;30.37;43.11;100472.03;4896925;28;69376;-29
2021/06/10 07:22:10;;;;;;;5.15;1.83;;;;;;;30.35;42.34;100466.06;4912972;28;65833;-31
2021/06/10 07:24:48;;;;;;;13.35;1.88;;;;;;;30.41;43.01;100476.78;4915062;28;70054;-33
2021/06/10 07:27:24;;;;;;;7.53;1.98;;;;;;;30.43;44.69;100468.47;4900228;28;66189;-32
2021/06/10 07:29:58;;;;;;;10.43;2.58;;;;;;;30.47;45.84;100464.22;4918426;28;69428;-31
2021/06/10 07:32:32;;;;;;;9.25;2.05;;;;;;;30.50;46.42;100463.78;4918148;28;66157;-33
2021/06/10 07:35:06;;;;;;;17.60;2.10;;;;;;;30.56;45.50;100452.03;4918442;28;70052;-30
2021/06/10 07:37:42;;;;;;;10.13;1.83;;;;;;;30.59;45.56;100462.41;4916538;28;66018;-30
2021/06/10 07:40:17;;;;;;;8.90;2.35;;;;;;;30.62;45.30;100448.44;4919593;28;69580;-29
2021/06/10 07:42:51;;;;;;;10.13;2.00;;;;;;;30.63;44.88;100444.66;4916079;28;66250;-29
2021/06/10 07:45:27;;;;;;;3.47;2.38;;;;;;;30.41;44.44;100402.91;4919519;28;70035;-27
2021/06/10 07:48:03;;;;;;;12.13;2.80;;;;;;;30.64;43.66;100446.28;4903129;28;65200;-28
2021/06/10 07:50:37;;;;;;;5.43;3.40;;;;;;;30.64;44.10;100438.16;4919785;28;70076;-29
2021/06/10 07:53:17;;;;;;;10.80;4.35;;;;;;;30.63;44.65;100450.06;4921010;28;65682;-28
2021/06/10 07:55:55;;;;;;;5.32;4.57;;;;;;;30.65;44.63;100442.56;4902939;28;69247;-28
2021/06/10 07:58:29;;;;;;;8.02;4.90;;;;;;;30.65;44.44;100442.56;4919729;28;66158;-29
2021/06/10 08:01:12;;;;;;;6.60;4.88;;;;;;;30.70;44.29;100455.38;4902193;28;69218;-33
2021/06/10 08:03:46;;;;;;;8.40;6.07;;;;;;;30.68;44.23;100447.50;4919393;28;66668;-29
2021/06/10 08:06:20;;;;;;;17.83;6.50;;;;;;;30.68;44.35;100450.22;4919835;28;70319;-33
2021/06/10 08:08:54;;;;;;;7.03;6.32;;;;;;;30.69;44.15;100446.44;4919389;28;64889;-28
2021/06/10 08:11:28;;;;;;;8.73;6.75;;;;;;;30.71;44.26;100454.34;4921323;28;69208;-29
2021/06/10 08:14:00;;;;;;;17.50;7.70;;;;;;;30.76;47.02;100451.78;4919346;28;66422;-30
2021/06/10 08:16:35;;;;;;;12.65;7.50;;;;;;;30.85;48.67;100445.00;4932085;28;67633;-28
2021/06/10 08:19:14;;;;;;;8.07;7.38;;;;;;;30.76;52.11;100407.59;4932936;28;68378;-30
2021/06/10 08:21:47;;;;;;;10.13;8.45;;;;;;;31.11;50.89;100449.19;4902861;28;70065;-32
2021/06/10 08:24:20;;;;;;;16.75;8.45;;;;;;;31.22;51.42;100450.28;4898188;28;66042;-29
2021/06/10 08:26:54;;;;;;;12.00;8.07;;;;;;;31.33;52.03;100444.03;4904875;28;70981;-30
2021/06/10 08:29:31;;;;;;;14.23;8.88;;;;;;;31.43;51.93;100435.38;4921452;28;65808;-29
2021/06/10 08:32:03;;;;;;;10.30;9.35;;;;;;;31.50;52.46;100435.25;4918313;28;69992;-33
2021/06/10 08:34:36;;;;;;;13.00;8.60;;;;;;;31.60;52.64;100439.03;4920826;28;65469;-31
2021/06/10 08:37:08;;;;;;;10.75;9.20;;;;;;;31.65;53.16;100434.78;4919573;28;69934;-32
2021/06/10 08:39:41;;;;;;;10.75;9.25;;;;;;;31.75;53.10;100437.72;4919048;28;65643;-33
2021/06/10 08:42:15;;;;;;;15.95;8.93;;;;;;;31.78;53.68;100429.94;4918895;28;69284;-30
2021/06/10 08:44:51;;;;;;;9.38;8.50;;;;;;;31.60;55.23;100387.53;4918530;28;66178;-29
2021/06/10 08:47:27;;;;;;;13.40;8.70;;;;;;;31.80;53.92;100410.72;4904596;28;70058;-32
2021/06/10 08:50:01;;;;;;;12.60;8.52;;;;;;;31.93;54.91;100432.22;4920308;28;66220;-28
2021/06/10 08:52:34;;;;;;;18.52;8.60;;;;;;;31.91;54.33;100423.47;4902261;28;70234;-30
2021/06/10 08:55:09;;;;;;;14.68;8.30;;;;;;;32.03;54.93;100434.28;4920545;28;65907;-31
2021/06/10 08:57:45;;;;;;;14.82;7.90;;;;;;;32.07;55.42;100426.50;4917480;28;68966;-34
2021/06/10 09:00:29;;;;;;;7.45;6.85;;;;;;;32.11;55.71;100422.25;4920410;28;64992;-32
2021/06/10 09:03:02;;;;;;;11.77;7.32;;;;;;;32.15;55.72;100426.13;4912366;28;69225;-30
2021/06/10 09:05:36;;;;;;;8.30;7.20;;;;;;;32.12;55.62;100415.75;4900424;28;66434;-33
2021/06/10 09:08:09;;;;;;;15.48;7.18;;;;;;;32.18;55.46;100428.34;4920190;28;69992;-32
2021/06/10 09:11:01;;;;;;;8.10;6.72;;;;;;;32.19;55.79;100430.03;4916066;28;67279;-31
2021/06/10 09:13:56;;;;;;;10.18;5.85;;;;;;;32.15;57.45;100443.25;4918584;28;70515;-34
2021/06/10 09:16:39;;;;;;;11.75;6.15;;;;;;;32.19;57.25;100449.03;4919052;28;66740;-33
2021/06/10 09:19:17;;;;;;;10.65;6.50;;;;;;;32.19;57.16;100444.41;4901258;28;69502;-33
2021/06/10 09:21:55;;;;;;;9.35;6.28;;;;;;;32.19;56.59;100443.59;4932261;28;66416;-33
2021/06/10 09:24:35;;;;;;;8.13;6.25;;;;;;;32.18;57.37;100441.94;4915379;28;69425;-35
2021/06/10 09:27:15;;;;;;;15.70;6.45;;;;;;;32.11;57.62;100436.66;4898273;28;66021;-33
2021/06/10 09:29:50;;;;;;;8.98;6.22;;;;;;;31.91;57.37;100398.22;4898274;28;70016;-35
2021/06/10 09:32:29;;;;;;;8.98;5.65;;;;;;;32.17;57.34;100449.25;4900117;28;64774;-32
2021/06/10 09:35:06;;;;;;;10.75;6.32;;;;;;;32.17;57.80;100441.09;4911706;28;69778;-34
2021/06/10 09:37:42;;;;;;;8.55;6.22;;;;;;;32.15;57.35;100459.53;4900752;28;65890;-33
2021/06/10 09:40:21;;;;;;;5.72;5.15;;;;;;;31.91;57.39;100420.75;4918801;28;70015;-33
2021/06/10 09:42:55;;;;;;;8.10;4.95;;;;;;;32.12;56.67;100448.31;4917897;28;66484;-34
2021/06/10 09:45:30;;;;;;;10.73;4.90;;;;;;;32.07;55.98;100440.06;4917518;28;69825;-32
2021/06/10 09:48:05;;;;;;;5.00;3.97;;;;;;;32.03;56.69;100435.13;4919644;28;65157;-31
2021/06/10 09:50:53;;;;;;;7.75;4.43;;;;;;;32.21;56.37;100452.31;4900700;28;70433;-34
2021/06/10 09:53:28;;;;;;;4.53;4.03;;;;;;;32.25;56.63;100464.34;4917212;28;65710;-33
2021/06/10 09:56:09;;;;;;;10.75;3.78;;;;;;;32.28;56.30;100463.84;4914027;28;70543;-33
2021/06/10 09:58:45;;;;;;;4.35;3.35;;;;;;;32.31;55.85;100454.41;4917631;28;65700;-32
2021/06/10 10:01:19;;;;;;;9.30;3.13;;;;;;;32.32;55.64;100456.06;4919250;28;70075;-32
2021/06/10 10:03:54;;;;;;;7.78;3.00;;;;;;;32.31;55.96;100457.94;4918468;28;66165;-33
2021/06/10 10:06:27;;;;;;;10.10;3.88;;;;;;;32.28;55.42;100458.44;4917812;28;70555;-33
2021/06/10 10:09:08;;;;;;;9.90;2.80;;;;;;;32.30;55.25;100464.44;4919687;28;66692;-31
2021/06/10 10:11:39;;;;;;;9.88;2.88;;;;;;;32.35;55.43;100463.75;4919596;28;69166;-32
2021/06/10 10:14:12;;;;;;;5.93;2.85;;;;;;;32.32;55.27;100462.31;4918821;28;65769;-32
2021/06/10 10:16:44;;;;;;;6.47;2.92;;;;;;;32.36;55.03;100460.78;4917199;28;69117;-33
2021/06/10 10:19:17;;;;;;;13.77;3.30;;;;;;;32.36;55.12;100471.63;4917458;28;64742;-33
2021/06/10 10:21:49;;;;;;;12.77;5.28;;;;;;;32.22;55.42;100448.53;4901758;28;70062;-31
2021/06/10 10:24:22;;;;;;;12.23;5.28;;;;;;;32.36;55.10;100482.47;4899297;28;65777;-31
2021/06/10 10:26:53;;;;;;;;;;;;;;;32.17;56.37;100489.13;4916691;28;70493;-32
2021/06/10 10:29:26;;;;;;;5.97;5.40;;;;;;;32.34;55.48;100487.31;4918069;28;64732;-32
2021/06/10 10:31:58;;;;;;;7.47;4.93;;;;;;;32.37;55.98;100492.25;4918126;28;70520;-33
2021/06/10 10:34:32;;;;;;;10.48;5.20;;;;;;;32.36;55.85;100490.63;4915147;28;65231;-35
2021/06/10 10:37:28;;;;;;;8.50;5.55;;;;;;;32.35;56.44;100491.69;4930273;28;69872;-35
2021/06/10 10:40:02;;;;;;;11.48;5.80;;;;;;;32.39;56.01;100497.47;4919170;28;65397;-32
2021/06/10 10:42:37;;;;;;;12.80;4.88;;;;;;;32.35;56.20;100486.28;4918813;28;69718;-33
2021/06/10 10:45:23;;;;;;;10.80;5.22;;;;;;;32.40;56.97;100494.53;4916114;28;65280;-31
2021/06/10 10:48:02;;;;;;;12.55;5.10;;;;;;;32.08;57.03;100458.81;4917329;28;70174;-30
2021/06/10 10:50:38;;;;;;;19.90;5.90;;;;;;;32.11;57.06;100468.38;4901195;28;66238;-31
2021/06/10 10:53:18;;;;;;;16.35;5.55;;;;;;;32.25;57.62;100514.00;4917386;28;69109;-31
2021/06/10 10:56:10;;;;;;;9.05;4.80;;;;;;;32.11;58.46;100507.19;4917789;28;65598;-32
2021/06/10 10:59:01;;;;;;;12.35;4.75;;;;;;;32.05;56.95;100508.97;4915401;28;70516;-32
2021/06/10 11:01:35;;;;;;;19.90;4.68;;;;;;;31.88;54.79;100524.28;4915266;28;65295;-35
2021/06/10 11:04:29;;;;;;;13.35;4.63;;;;;;;31.63;55.14;100527.22;4914546;28;69225;-36
2021/06/10 11:07:00;;;;;;;31.17;5.10;;;;;;;31.43;55.20;100538.38;4933915;28;65298;-36
2021/06/10 11:09:52;;;;;;;19.88;4.55;;;;;;;31.26;53.80;100540.03;4902836;28;69240;-34
2021/06/10 11:12:43;;;;;;;12.30;5.28;;;;;;;31.21;52.94;100534.53;4918740;28;66020;-35
2021/06/10 11:15:25;;;;;;;12.75;4.50;;;;;;;31.21;51.99;100540.75;4918837;28;69940;-35
2021/06/10 11:17:59;;;;;;;11.43;5.03;;;;;;;31.12;51.79;100537.56;4916149;28;66619;-35
2021/06/10 11:20:38;;;;;;;13.65;4.53;;;;;;;31.07;51.12;100537.41;4917225;28;69230;-35
2021/06/10 11:23:27;;;;;;;15.18;4.60;;;;;;;30.99;49.98;100542.31;4898454;28;65985;-37
2021/06/10 11:26:03;;;;;;;12.60;4.22;;;;;;;30.98;49.59;100549.63;4918177;28;69923;-35
2021/06/10 11:28:37;;;;;;;11.98;4.40;;;;;;;30.90;49.56;100547.25;4906120;28;66239;-36
2021/06/10 11:31:21;;;;;;;9.70;3.88;;;;;;;30.82;48.54;100552.97;4884659;28;68261;-36
2021/06/10 11:33:55;;;;;;;7.40;3.92;;;;;;;30.79;47.77;100550.69;4896370;28;65600;-35
2021/06/10 11:36:27;;;;;;;9.88;4.03;;;;;;;30.76;47.32;100549.25;4874310;28;69045;-35
2021/06/10 11:39:00;;;;;;;5.22;3.65;;;;;;;30.75;48.45;100552.19;4895797;28;66023;-34
2021/06/10 11:41:32;;;;;;;11.70;4.15;;;;;;;30.70;48.20;100556.41;4901553;28;68982;-34
2021/06/10 11:44:04;;;;;;;17.13;3.35;;;;;;;30.58;48.08;100547.38;4918109;28;66175;-36
2021/06/10 11:46:40;;;;;;;17.40;3.72;;;;;;;30.42;47.33;100532.59;4917776;28;69781;-35
2021/06/10 11:49:12;;;;;;;22.08;4.10;;;;;;;30.61;46.82;100559.63;4913961;28;66356;-34
2021/06/10 11:51:45;;;;;;;;;;;;;;;30.30;46.61;100557.91;4916552;28;70563;-34
2021/06/10 11:54:17;;;;;;;20.23;4.10;;;;;;;30.52;47.07;100563.69;4898032;28;64892;-33
2021/06/10 11:56:56;;;;;;;;;;;;;;;30.25;46.55;100562.09;4916626;28;69652;-34
2021/06/10 11:59:34;;;;;;;25.30;3.95;;;;;;;30.45;46.39;100561.06;4916757;28;65734;-34
2021/06/10 12:02:11;;;;;;;30.67;4.70;;;;;;;30.19;45.65;100516.97;4915626;28;69884;-37